Time;durP1;ratioP1;P1;durP2;ratioP2;P2;SDS_P1;SDS_P2;PMS_P1;PMS_P2;Temp;Humidity;BMP_temperature;BMP_pressure;BME280_temperature;BME280_humidity;BME280_pressure;Samples;Min_cycle;Max_cycle;Signal;HPM_P1;HPM_P2
2022/11/19 00:02:04;;;;;;;11.40;10.30;;;0.20;99.90;;;;;;5074710;28;20433;-78
2022/11/19 00:04:34;;;;;;;9.93;8.93;;;0.20;99.90;;;;;;5074105;28;20469;-79
2022/11/19 00:07:02;;;;;;;9.73;8.57;;;0.10;99.90;;;;;;5072706;28;20481;-78
2022/11/19 00:09:30;;;;;;;10.23;9.13;;;0.10;99.90;;;;;;5072526;28;20985;-78
2022/11/19 00:14:58;;;;;;;9.10;8.20;;;0.10;99.90;;;;;;4995655;28;20859;-78
2022/11/19 00:17:26;;;;;;;9.87;8.97;;;0.10;99.90;;;;;;4995396;28;20443;-78
2022/11/19 00:19:56;;;;;;;10.87;9.67;;;0.00;99.90;;;;;;5028545;28;20818;-78
2022/11/19 00:22:24;;;;;;;8.90;8.07;;;0.10;99.90;;;;;;5071994;28;20465;-78
2022/11/19 00:24:52;;;;;;;9.60;8.60;;;0.00;99.90;;;;;;5071989;28;20469;-77
2022/11/19 00:27:20;;;;;;;9.70;8.63;;;0.00;99.90;;;;;;5071773;28;20479;-77
2022/11/19 00:29:50;;;;;;;9.23;8.33;;;0.00;99.90;;;;;;5071756;28;20518;-77
2022/11/19 00:32:18;;;;;;;8.73;7.80;;;0.00;99.90;;;;;;5071787;28;20548;-78
2022/11/19 00:34:46;;;;;;;10.23;9.13;;;-0.10;99.90;;;;;;5071931;28;20449;-78
2022/11/19 00:37:16;;;;;;;9.20;8.30;;;-0.10;99.90;;;;;;5073327;28;20456;-77
2022/11/19 00:39:44;;;;;;;9.53;8.50;;;-0.10;99.90;;;;;;5071810;28;20457;-77
2022/11/19 00:42:12;;;;;;;9.93;8.90;;;-0.10;99.90;;;;;;5072373;28;20502;-78
2022/11/19 00:44:40;;;;;;;10.27;9.20;;;-0.10;99.90;;;;;;5075474;28;20834;-78
2022/11/19 00:47:08;;;;;;;9.80;8.70;;;-0.20;99.90;;;;;;5075403;28;20441;-78
2022/11/19 00:49:36;;;;;;;9.80;8.80;;;-0.20;99.90;;;;;;5075381;28;20514;-78
2022/11/19 00:52:05;;;;;;;11.63;9.67;;;-0.20;99.90;;;;;;5076070;28;20453;-77
2022/11/19 00:54:35;;;;;;;11.23;9.83;;;-0.20;99.90;;;;;;5074876;28;20456;-77
2022/11/19 00:57:03;;;;;;;10.53;9.20;;;-0.20;99.90;;;;;;5074824;28;20973;-77
2022/11/19 00:59:33;;;;;;;11.00;9.83;;;-0.20;99.90;;;;;;5074809;28;20452;-78
2022/11/19 01:02:02;;;;;;;10.93;9.70;;;-0.30;99.90;;;;;;5074589;28;20492;-78
2022/11/19 01:04:30;;;;;;;11.00;9.90;;;-0.30;99.90;;;;;;5074678;28;20506;-78
2022/11/19 01:06:58;;;;;;;10.73;9.63;;;-0.30;99.90;;;;;;5076254;28;20444;-77
2022/11/19 01:09:28;;;;;;;11.27;9.20;;;-0.30;99.90;;;;;;5076172;28;20441;-77
2022/11/19 01:11:57;;;;;;;11.70;9.83;;;-0.30;99.90;;;;;;5074431;28;20933;-77
2022/11/19 01:14:26;;;;;;;11.10;10.00;;;-0.30;99.90;;;;;;5074586;28;20540;-77
2022/11/19 01:16:54;;;;;;;11.40;9.83;;;-0.30;99.90;;;;;;5074331;28;20445;-77
2022/11/19 01:19:22;;;;;;;11.00;9.70;;;-0.40;99.90;;;;;;5074345;28;20511;-77
2022/11/19 01:21:50;;;;;;;11.60;10.17;;;-0.40;99.90;;;;;;5074151;28;20456;-77
2022/11/19 01:24:18;;;;;;;10.70;9.10;;;-0.40;99.90;;;;;;5074147;28;20468;-77
2022/11/19 01:26:46;;;;;;;11.10;10.00;;;-0.40;99.90;;;;;;5075407;28;20518;-77
2022/11/19 01:29:16;;;;;;;12.30;11.13;;;-0.40;99.90;;;;;;5074309;28;20477;-77
2022/11/19 01:31:44;;;;;;;10.33;9.00;;;-0.40;99.90;;;;;;5074097;28;20453;-77
2022/11/19 01:34:12;;;;;;;10.20;9.20;;;-0.40;99.90;;;;;;5073869;28;20520;-77
2022/11/19 01:36:40;;;;;;;10.40;9.30;;;-0.40;99.90;;;;;;5073969;28;20928;-77
2022/11/19 01:39:09;;;;;;;11.20;10.00;;;-0.50;99.90;;;;;;5073879;28;20445;-77
2022/11/19 01:41:37;;;;;;;10.53;9.43;;;-0.50;99.90;;;;;;5076223;28;20437;-77
2022/11/19 01:44:07;;;;;;;9.13;8.23;;;-0.50;99.90;;;;;;5073743;28;20465;-77
2022/11/19 01:46:38;;;;;;;9.47;8.57;;;-0.50;99.90;;;;;;5073899;28;20461;-77
2022/11/19 01:49:10;;;;;;;10.20;8.50;;;-0.50;99.90;;;;;;5073884;28;20517;-77
2022/11/19 01:51:44;;;;;;;11.67;10.43;;;-0.50;99.90;;;;;;5075019;28;20464;-77
2022/11/19 01:54:20;;;;;;;12.07;10.80;;;-0.50;99.90;;;;;;5074574;28;21002;-77
2022/11/19 01:56:48;;;;;;;11.67;9.80;;;-0.60;99.90;;;;;;5075299;28;20413;-77
2022/11/19 01:59:17;;;;;;;12.10;10.23;;;-0.60;99.90;;;;;;5075191;28;20518;-77
2022/11/19 02:01:48;;;;;;;13.80;10.27;;;-0.60;99.90;;;;;;5073602;28;20962;-76
2022/11/19 02:04:19;;;;;;;11.17;9.23;;;-0.60;99.90;;;;;;5073399;28;20461;-77
2022/11/19 02:06:48;;;;;;;11.17;10.03;;;-0.60;99.90;;;;;;5074568;28;20507;-77
2022/11/19 02:09:16;;;;;;;10.40;9.30;;;-0.70;99.90;;;;;;5073209;28;20448;-77
2022/11/19 02:12:08;;;;;;;11.20;9.43;;;-0.70;99.90;;;;;;5073230;28;20530;-77
2022/11/19 02:14:58;;;;;;;10.37;9.37;;;-0.70;99.90;;;;;;5074820;28;20418;-77
2022/11/19 02:17:43;;;;;;;9.50;8.50;;;-0.70;99.90;;;;;;5074668;28;20426;-76
2022/11/19 02:20:33;;;;;;;15.37;10.37;;;-0.70;99.90;;;;;;5074729;28;20470;-77
2022/11/19 02:23:36;;;;;;;11.37;10.03;;;-0.80;99.90;;;;;;5074537;28;20473;-76
2022/11/19 02:26:56;;;;;;;11.30;10.10;;;-0.70;99.90;;;;;;5074226;28;21038;-76
2022/11/19 02:30:12;;;;;;;11.90;10.70;;;-0.80;99.90;;;;;;5048450;28;20958;-77
2022/11/19 02:32:58;;;;;;;11.63;9.67;;;-0.80;99.90;;;;;;4995868;28;20472;-76
2022/11/19 02:35:47;;;;;;;13.07;10.13;;;-0.80;99.90;;;;;;5072876;28;20512;-76
2022/11/19 02:38:27;;;;;;;10.73;9.53;;;-0.90;99.90;;;;;;5072798;28;20446;-76
2022/11/19 02:40:59;;;;;;;10.37;9.00;;;-0.80;99.90;;;;;;5074347;28;20431;-76
2022/11/19 02:43:35;;;;;;;10.50;9.40;;;-0.90;99.90;;;;;;5075422;28;20461;-76
2022/11/19 02:46:08;;;;;;;12.00;10.00;;;-0.80;99.90;;;;;;5074314;28;20982;-76
2022/11/19 02:48:41;;;;;;;10.87;9.60;;;-0.90;99.90;;;;;;5074157;28;20919;-76
2022/11/19 02:51:09;;;;;;;11.50;9.97;;;-0.90;99.90;;;;;;5072624;28;20980;-76
2022/11/19 02:53:37;;;;;;;11.20;9.90;;;-0.90;99.90;;;;;;5072565;28;21005;-76
2022/11/19 02:56:13;;;;;;;10.37;9.33;;;-0.90;99.90;;;;;;5074890;28;20536;-77
2022/11/19 03:04:32;;;;;;;12.80;11.13;;;-1.00;99.90;;;;;;5053030;28;20536;-76
2022/11/19 03:07:04;;;;;;;13.13;10.17;;;-1.00;99.90;;;;;;5071815;28;20457;-76
2022/11/19 03:09:36;;;;;;;11.90;10.10;;;-0.90;99.90;;;;;;5072330;28;20491;-76
2022/11/19 03:12:11;;;;;;;12.20;10.87;;;-1.00;99.90;;;;;;5074073;28;20948;-76
2022/11/19 03:17:46;;;;;;;10.93;9.77;;;-1.00;99.90;;;;;;5072342;28;20671;-77
2022/11/19 03:20:23;;;;;;;11.77;10.10;;;-1.00;99.90;;;;;;5073825;28;20425;-77
2022/11/19 03:22:54;;;;;;;13.33;11.70;;;-1.00;99.90;;;;;;5072144;28;20982;-77
2022/11/19 03:25:28;;;;;;;12.80;11.20;;;-1.00;99.90;;;;;;5073044;28;20444;-77
2022/11/19 03:28:01;;;;;;;12.27;10.63;;;-1.00;99.90;;;;;;5072544;28;20422;-76
2022/11/19 03:30:31;;;;;;;11.23;10.07;;;-1.00;99.90;;;;;;5072247;28;20448;-77
2022/11/19 03:33:03;;;;;;;10.77;9.60;;;-1.10;99.90;;;;;;5073277;28;20567;-76
2022/11/19 03:35:36;;;;;;;11.10;9.90;;;-1.10;99.90;;;;;;5072064;28;20469;-76
2022/11/19 03:38:10;;;;;;;11.30;10.20;;;-1.10;99.90;;;;;;5071991;28;20441;-77
2022/11/19 03:40:41;;;;;;;12.77;10.30;;;-1.10;99.90;;;;;;5071990;28;20438;-77
2022/11/19 03:43:13;;;;;;;12.57;10.80;;;-1.10;99.90;;;;;;5071950;28;20492;-77
2022/11/19 03:45:44;;;;;;;12.20;9.90;;;-1.10;99.90;;;;;;5072003;28;20433;-76
2022/11/19 03:48:13;;;;;;;11.20;10.10;;;-1.10;99.90;;;;;;5071972;28;20536;-77
2022/11/19 03:50:47;;;;;;;11.30;9.70;;;-1.10;99.90;;;;;;5071710;28;20518;-77
2022/11/19 03:53:15;;;;;;;11.57;10.37;;;-1.20;99.90;;;;;;5071820;28;20473;-76
2022/11/19 03:55:47;;;;;;;11.30;9.60;;;-1.20;99.90;;;;;;5071824;28;20502;-76
2022/11/19 03:58:15;;;;;;;12.30;11.00;;;-1.20;99.90;;;;;;5071971;28;20449;-77
2022/11/19 04:00:44;;;;;;;12.17;10.50;;;-1.20;99.90;;;;;;5073090;28;20499;-77
2022/11/19 04:03:12;;;;;;;11.47;10.27;;;-1.20;99.90;;;;;;5071692;28;20477;-76
2022/11/19 04:05:41;;;;;;;12.63;11.33;;;-1.20;99.90;;;;;;5071842;28;20440;-77
2022/11/19 04:08:09;;;;;;;11.90;10.67;;;-1.20;99.90;;;;;;5073141;28;20461;-77
2022/11/19 04:10:38;;;;;;;13.33;11.03;;;-1.30;99.90;;;;;;5071698;28;20511;-77
2022/11/19 04:13:06;;;;;;;12.00;10.70;;;-1.30;99.90;;;;;;5073054;28;20556;-77
2022/11/19 04:15:34;;;;;;;12.87;10.60;;;-1.30;99.90;;;;;;5071622;28;20452;-76
2022/11/19 04:18:02;;;;;;;11.30;9.80;;;-1.30;99.90;;;;;;5074736;28;20441;-77
2022/11/19 04:20:30;;;;;;;12.73;11.00;;;-1.30;99.90;;;;;;5075463;28;20471;-77
2022/11/19 04:22:59;;;;;;;12.00;10.63;;;-1.30;99.90;;;;;;5075288;28;20465;-76
2022/11/19 04:25:27;;;;;;;11.40;10.13;;;-1.40;99.90;;;;;;5075234;28;20972;-77
2022/11/19 04:27:56;;;;;;;12.07;10.33;;;-1.40;99.90;;;;;;5075231;28;21122;-77
2022/11/19 04:30:25;;;;;;;11.97;10.77;;;-1.40;99.90;;;;;;5076946;28;20440;-76
2022/11/19 04:32:53;;;;;;;11.47;10.23;;;-1.40;99.90;;;;;;5075037;28;20501;-77
2022/11/19 04:35:21;;;;;;;12.80;11.50;;;-1.40;99.90;;;;;;5075052;28;20498;-77
2022/11/19 04:37:49;;;;;;;13.17;11.23;;;-1.40;99.90;;;;;;5076506;28;20441;-77
2022/11/19 04:40:18;;;;;;;13.60;12.30;;;-1.40;99.90;;;;;;5075003;28;20499;-77
2022/11/19 04:42:46;;;;;;;11.17;9.73;;;-1.40;99.90;;;;;;5075079;28;20519;-77
2022/11/19 04:45:15;;;;;;;12.67;11.30;;;-1.50;99.90;;;;;;5075055;28;20860;-77
2022/11/19 04:47:43;;;;;;;12.13;10.60;;;-1.50;99.90;;;;;;5074910;28;20465;-77
2022/11/19 04:50:11;;;;;;;11.47;10.30;;;-1.50;99.90;;;;;;5074726;28;20453;-77
2022/11/19 04:52:39;;;;;;;11.70;10.13;;;-1.50;99.90;;;;;;5076371;28;20559;-77
2022/11/19 04:55:09;;;;;;;13.30;10.77;;;-1.50;99.90;;;;;;5076282;28;20451;-77
2022/11/19 04:57:39;;;;;;;13.60;10.50;;;-1.50;99.90;;;;;;5074779;28;20972;-77
2022/11/19 05:00:08;;;;;;;12.43;10.80;;;-1.50;99.90;;;;;;5074760;28;20543;-77
2022/11/19 05:02:36;;;;;;;11.07;9.60;;;-1.50;99.90;;;;;;5074642;28;20485;-77
2022/11/19 05:05:05;;;;;;;12.10;10.03;;;-1.60;99.90;;;;;;5075912;28;20464;-77
2022/11/19 05:07:33;;;;;;;11.30;10.10;;;-1.60;99.90;;;;;;5074491;28;20476;-77
2022/11/19 05:10:01;;;;;;;13.33;11.93;;;-1.60;99.90;;;;;;5076420;28;20835;-77
2022/11/19 05:12:30;;;;;;;12.80;11.50;;;-1.60;99.90;;;;;;5074352;28;20884;-77
2022/11/19 05:14:59;;;;;;;11.93;10.00;;;-1.60;99.90;;;;;;5074253;28;20453;-77
2022/11/19 05:17:27;;;;;;;11.57;10.37;;;-1.60;99.90;;;;;;5074283;28;20942;-77
2022/11/19 05:19:58;;;;;;;12.03;10.23;;;-1.60;99.90;;;;;;5075452;28;20448;-77
2022/11/19 05:22:26;;;;;;;11.63;10.23;;;-1.60;99.90;;;;;;5074169;28;20477;-77
2022/11/19 05:24:54;;;;;;;12.57;10.07;;;-1.60;99.90;;;;;;5074294;28;20441;-77
2022/11/19 05:27:22;;;;;;;11.63;10.00;;;-1.60;99.90;;;;;;5074161;28;20473;-77
2022/11/19 05:29:51;;;;;;;12.30;11.00;;;-1.60;99.90;;;;;;5073511;28;20448;-77
2022/11/19 05:32:20;;;;;;;12.60;10.97;;;-1.60;99.90;;;;;;5074105;28;20457;-77
2022/11/19 05:34:48;;;;;;;12.67;11.27;;;-1.60;99.90;;;;;;5074173;28;20451;-77
2022/11/19 05:37:16;;;;;;;12.40;10.90;;;-1.60;99.90;;;;;;5074838;28;20452;-77
2022/11/19 05:39:44;;;;;;;12.47;10.80;;;-1.60;99.90;;;;;;5074137;28;20498;-76
2022/11/19 05:42:13;;;;;;;12.47;11.00;;;-1.60;99.90;;;;;;5073794;28;20457;-77
2022/11/19 05:44:41;;;;;;;12.33;11.03;;;-1.70;99.90;;;;;;5073765;28;20502;-77
2022/11/19 05:47:09;;;;;;;11.90;10.67;;;-1.70;99.90;;;;;;5075135;28;20823;-77
2022/11/19 05:49:38;;;;;;;13.03;11.10;;;-1.70;99.90;;;;;;5073601;28;20448;-77
2022/11/19 05:52:07;;;;;;;13.33;11.10;;;-1.70;99.90;;;;;;5074807;28;20973;-77
2022/11/19 05:54:35;;;;;;;14.73;12.30;;;-1.70;99.90;;;;;;5075063;28;20437;-77
2022/11/19 05:57:04;;;;;;;12.73;11.40;;;-1.70;99.90;;;;;;5074837;28;20448;-77
2022/11/19 05:59:32;;;;;;;12.03;10.80;;;-1.70;99.90;;;;;;5073624;28;20495;-77
2022/11/19 06:02:00;;;;;;;13.60;11.40;;;-1.80;99.90;;;;;;5073669;28;20445;-77
2022/11/19 06:04:28;;;;;;;13.40;11.43;;;-1.80;99.90;;;;;;5073629;28;20437;-77
2022/11/19 06:06:58;;;;;;;13.03;11.70;;;-1.80;99.90;;;;;;5074499;28;20485;-77
2022/11/19 06:09:26;;;;;;;12.80;11.03;;;-1.80;99.90;;;;;;5073432;28;20449;-77
2022/11/19 06:11:55;;;;;;;13.67;11.97;;;-1.80;99.90;;;;;;5075109;28;20566;-77
2022/11/19 06:14:25;;;;;;;14.03;12.53;;;-1.80;99.90;;;;;;5073305;28;20472;-78
2022/11/19 06:16:55;;;;;;;14.00;12.50;;;-1.80;99.90;;;;;;5073565;28;20445;-77
2022/11/19 06:19:24;;;;;;;15.27;12.50;;;-1.80;99.90;;;;;;5075130;28;20475;-78
2022/11/19 06:21:53;;;;;;;15.70;12.67;;;-1.80;99.90;;;;;;5073862;28;20512;-78
2022/11/19 06:24:22;;;;;;;14.80;13.20;;;-1.90;99.90;;;;;;5074566;28;20472;-78
2022/11/19 06:26:50;;;;;;;14.03;11.47;;;-1.80;99.90;;;;;;5073607;28;20445;-77
2022/11/19 06:29:19;;;;;;;14.30;12.47;;;-1.90;99.90;;;;;;5074671;28;20978;-77
2022/11/19 06:31:48;;;;;;;12.63;11.33;;;-1.90;99.90;;;;;;5073209;28;20536;-77
2022/11/19 06:34:16;;;;;;;13.93;12.40;;;-1.90;99.90;;;;;;5073021;28;20491;-77
2022/11/19 06:36:44;;;;;;;14.07;11.03;;;-1.90;99.90;;;;;;5072877;28;20835;-77
2022/11/19 06:39:17;;;;;;;13.77;11.20;;;-1.90;99.90;;;;;;5072756;28;20444;-77
2022/11/19 06:41:48;;;;;;;14.90;11.60;;;-1.90;99.90;;;;;;5072143;28;20452;-77
2022/11/19 06:44:16;;;;;;;13.30;11.90;;;-1.90;99.90;;;;;;5073746;28;20563;-75
2022/11/19 06:46:44;;;;;;;14.80;10.97;;;-1.90;99.90;;;;;;5072609;28;20433;-77
2022/11/19 06:49:13;;;;;;;13.07;10.67;;;-2.00;99.90;;;;;;5072562;28;20559;-77
2022/11/19 06:51:47;;;;;;;14.27;11.70;;;-2.00;99.90;;;;;;5072404;28;20464;-76
2022/11/19 06:54:15;;;;;;;13.90;10.80;;;-2.00;99.90;;;;;;5072436;28;21005;-76
2022/11/19 06:56:43;;;;;;;12.93;11.33;;;-2.00;99.90;;;;;;5072510;28;20792;-76
2022/11/19 06:59:13;;;;;;;12.93;11.00;;;-2.00;99.90;;;;;;5072486;28;20811;-78
2022/11/19 07:01:41;;;;;;;13.50;12.10;;;-2.00;99.90;;;;;;5072482;28;20511;-77
2022/11/19 07:04:10;;;;;;;12.83;11.53;;;-2.10;99.90;;;;;;5072373;28;20493;-77
2022/11/19 07:06:38;;;;;;;13.90;10.57;;;-2.10;99.90;;;;;;5073912;28;20495;-76
2022/11/19 07:09:06;;;;;;;13.60;12.20;;;-2.10;99.90;;;;;;5072218;28;20472;-76
2022/11/19 07:11:34;;;;;;;14.83;11.97;;;-2.10;99.90;;;;;;5072287;28;20449;-76
2022/11/19 07:14:03;;;;;;;18.57;14.20;;;-2.20;99.90;;;;;;5073465;28;20974;-76
2022/11/19 07:16:34;;;;;;;15.60;12.07;;;-2.20;99.90;;;;;;5072241;28;20445;-76
2022/11/19 07:19:04;;;;;;;13.27;11.40;;;-2.20;99.90;;;;;;5072244;28;20843;-76
2022/11/19 07:21:33;;;;;;;14.00;11.40;;;-2.20;99.90;;;;;;5072108;28;20441;-76
2022/11/19 07:24:04;;;;;;;14.93;11.93;;;-2.20;99.90;;;;;;5071948;28;20469;-76
2022/11/19 07:26:34;;;;;;;15.33;12.20;;;-2.20;99.90;;;;;;5072026;28;20476;-76
2022/11/19 07:29:03;;;;;;;14.60;11.73;;;-2.20;99.90;;;;;;5071950;28;20840;-76
2022/11/19 07:31:33;;;;;;;15.63;13.63;;;-2.20;99.90;;;;;;5073578;28;20441;-76
2022/11/19 07:34:02;;;;;;;16.53;13.67;;;-2.20;99.90;;;;;;5072042;28;20476;-76
2022/11/19 07:36:30;;;;;;;16.20;12.53;;;-2.20;99.90;;;;;;5071987;28;20437;-76
2022/11/19 07:38:58;;;;;;;16.90;13.20;;;-2.20;99.90;;;;;;5071869;28;20452;-77
2022/11/19 07:44:22;;;;;;;18.00;12.30;;;-2.20;99.90;;;;;;5072682;28;20480;-76
2022/11/19 07:46:52;;;;;;;14.93;12.57;;;-2.20;99.90;;;;;;5072037;28;20539;-77
2022/11/19 07:49:20;;;;;;;15.73;12.83;;;-2.20;99.90;;;;;;5073390;28;20457;-77
2022/11/19 07:51:49;;;;;;;15.87;12.47;;;-2.20;99.90;;;;;;5073149;28;20549;-77
2022/11/19 07:54:17;;;;;;;15.10;13.20;;;-2.20;99.90;;;;;;5075904;28;20518;-77
2022/11/19 07:56:46;;;;;;;16.80;13.83;;;-2.20;99.90;;;;;;5077545;28;20433;-77
2022/11/19 07:59:14;;;;;;;15.60;13.60;;;-2.20;99.90;;;;;;5075890;28;20447;-77
2022/11/19 08:01:42;;;;;;;14.83;12.00;;;-2.20;99.90;;;;;;5075842;28;20453;-77
2022/11/19 08:04:12;;;;;;;12.90;11.50;;;-2.20;99.90;;;;;;5075767;28;20476;-77
2022/11/19 08:06:40;;;;;;;14.70;12.00;;;-2.10;99.90;;;;;;5075736;28;20502;-77
2022/11/19 08:09:08;;;;;;;15.47;13.73;;;-2.10;99.90;;;;;;5075617;28;20871;-77
2022/11/19 08:11:37;;;;;;;15.23;13.10;;;-2.10;99.90;;;;;;5075646;28;20457;-77
2022/11/19 08:14:05;;;;;;;14.83;13.07;;;-2.10;99.90;;;;;;5075612;28;20845;-77
2022/11/19 08:19:21;;;;;;;14.63;13.00;;;-2.10;99.90;;;;;;5075530;28;20437;-77
2022/11/19 08:21:50;;;;;;;14.60;12.13;;;-2.10;99.90;;;;;;5075746;28;20449;-77
2022/11/19 08:24:19;;;;;;;15.67;13.27;;;-2.00;99.90;;;;;;5076608;28;20464;-77
2022/11/19 08:26:48;;;;;;;14.20;12.47;;;-2.00;99.90;;;;;;5075377;28;20444;-78
2022/11/19 08:29:22;;;;;;;14.20;12.60;;;-2.00;99.90;;;;;;5076538;28;20563;-78
2022/11/19 08:31:51;;;;;;;18.47;15.20;;;-2.00;99.90;;;;;;5075324;28;20452;-76
2022/11/19 08:34:19;;;;;;;14.60;11.57;;;-1.90;99.90;;;;;;5075217;28;20471;-77
2022/11/19 08:36:49;;;;;;;15.53;13.73;;;-1.90;99.90;;;;;;5075210;28;20449;-77
2022/11/19 08:39:18;;;;;;;15.83;13.53;;;-1.80;99.90;;;;;;5076393;28;20452;-78
2022/11/19 08:44:31;;;;;;;14.13;12.70;;;-1.80;99.90;;;;;;5075110;28;20445;-78
2022/11/19 08:47:00;;;;;;;15.07;12.73;;;-1.70;99.90;;;;;;5075051;28;20463;-77
2022/11/19 08:49:28;;;;;;;14.13;12.00;;;-1.70;99.90;;;;;;5074975;28;20838;-78
2022/11/19 08:51:57;;;;;;;14.80;13.20;;;-1.70;99.90;;;;;;5076013;28;20495;-77
2022/11/19 08:54:25;;;;;;;15.73;13.33;;;-1.60;99.90;;;;;;5076918;28;20472;-78
2022/11/19 08:56:53;;;;;;;15.27;13.63;;;-1.60;99.90;;;;;;5074970;28;20448;-77
2022/11/19 08:59:22;;;;;;;13.60;12.10;;;-1.50;99.90;;;;;;5076050;28;20942;-77
2022/11/19 09:01:50;;;;;;;14.83;13.17;;;-1.50;99.90;;;;;;5076031;28;20440;-78
2022/11/19 09:04:18;;;;;;;16.70;12.23;;;-1.50;99.90;;;;;;5075382;28;20469;-77
2022/11/19 09:06:46;;;;;;;15.83;12.60;;;-1.40;99.90;;;;;;5074624;28;20880;-78
2022/11/19 09:09:16;;;;;;;14.57;13.07;;;-1.40;99.90;;;;;;5074578;28;20492;-78
2022/11/19 09:11:44;;;;;;;14.60;12.97;;;-1.30;99.90;;;;;;5074549;28;20823;-78
2022/11/19 09:14:12;;;;;;;15.40;13.80;;;-1.30;99.90;;;;;;5074412;28;20511;-77
2022/11/19 09:16:41;;;;;;;14.70;13.00;;;-1.20;99.90;;;;;;5074524;28;20447;-78
2022/11/19 09:19:09;;;;;;;15.03;12.87;;;-1.10;99.90;;;;;;5075619;28;20441;-78
2022/11/19 09:21:37;;;;;;;14.07;12.60;;;-1.10;99.90;;;;;;5074366;28;20955;-77
2022/11/19 09:24:06;;;;;;;13.83;12.30;;;-1.10;99.90;;;;;;5075440;28;20510;-77
2022/11/19 09:26:36;;;;;;;13.97;12.43;;;-1.00;99.90;;;;;;5074411;28;20449;-77
2022/11/19 09:29:04;;;;;;;14.30;12.67;;;-1.00;99.90;;;;;;5074231;28;20473;-77
2022/11/19 09:31:32;;;;;;;16.37;14.23;;;-0.90;99.90;;;;;;5074166;28;20445;-77
2022/11/19 09:34:00;;;;;;;15.03;13.43;;;-0.90;99.90;;;;;;5075363;28;20464;-77
2022/11/19 09:36:28;;;;;;;16.77;14.33;;;-0.80;99.90;;;;;;5074124;28;20445;-77
2022/11/19 09:38:57;;;;;;;27.90;21.17;;;-0.70;99.90;;;;;;5074410;28;20453;-78
2022/11/19 09:41:47;;;;;;;14.10;12.30;;;-0.70;99.90;;;;;;5075671;28;20440;-78
2022/11/19 09:44:29;;;;;;;12.73;11.40;;;-0.60;99.90;;;;;;5073908;28;20480;-78
2022/11/19 09:47:06;;;;;;;14.43;12.10;;;-0.60;99.90;;;;;;5074000;28;20438;-77
2022/11/19 09:49:41;;;;;;;13.17;11.80;;;-0.50;99.90;;;;;;5073803;28;20465;-77
2022/11/19 09:52:14;;;;;;;13.50;12.10;;;-0.40;99.90;;;;;;5073565;28;20969;-77
2022/11/19 09:54:48;;;;;;;13.73;12.30;;;-0.40;99.90;;;;;;5073744;28;20456;-77
2022/11/19 09:57:27;;;;;;;13.03;11.73;;;-0.30;99.90;;;;;;5073730;28;20437;-77
2022/11/19 10:00:00;;;;;;;12.17;10.83;;;-0.30;99.90;;;;;;5075257;28;20508;-76
2022/11/19 10:02:29;;;;;;;13.60;12.03;;;-0.20;99.90;;;;;;5075290;28;20994;-77
2022/11/19 10:04:58;;;;;;;11.60;10.40;;;-0.20;99.90;;;;;;5075029;28;20445;-77
2022/11/19 10:07:38;;;;;;;13.20;11.90;;;-0.10;99.90;;;;;;5073422;28;20806;-77
2022/11/19 10:10:21;;;;;;;11.27;10.17;;;-0.10;99.90;;;;;;5073366;28;20465;-77
2022/11/19 10:13:12;;;;;;;12.60;11.40;;;-0.10;99.90;;;;;;5074519;28;20552;-77
2022/11/19 10:15:55;;;;;;;12.10;10.63;;;0.00;99.90;;;;;;5074354;28;20430;-76
2022/11/19 10:18:31;;;;;;;10.37;9.27;;;0.00;99.90;;;;;;5073309;28;20447;-77
2022/11/19 10:21:04;;;;;;;19.40;10.50;;;0.10;99.90;;;;;;5074778;28;20801;-76
2022/11/19 10:23:44;;;;;;;11.83;10.63;;;0.10;99.90;;;;;;5074633;28;20465;-76
2022/11/19 10:26:15;;;;;;;11.03;9.93;;;0.20;99.90;;;;;;5074688;28;20471;-76
2022/11/19 10:28:51;;;;;;;11.00;9.80;;;0.20;99.90;;;;;;5073126;28;20437;-77
2022/11/19 10:31:27;;;;;;;12.83;10.63;;;0.30;99.90;;;;;;5074484;28;20456;-77
2022/11/19 10:34:01;;;;;;;12.33;11.03;;;0.30;99.90;;;;;;5074203;28;20448;-77
2022/11/19 10:36:36;;;;;;;12.40;10.87;;;0.40;99.90;;;;;;5073073;28;20448;-77
2022/11/19 10:39:12;;;;;;;12.10;10.67;;;0.40;99.90;;;;;;5074411;28;20429;-75
2022/11/19 10:41:48;;;;;;;10.93;9.63;;;0.50;99.90;;;;;;5073107;28;20855;-76
2022/11/19 10:44:39;;;;;;;10.27;9.27;;;0.60;99.90;;;;;;5074316;28;20816;-76
2022/11/19 10:47:13;;;;;;;10.73;9.63;;;0.60;99.90;;;;;;5072991;28;20445;-77
2022/11/19 10:49:42;;;;;;;9.73;8.83;;;0.70;99.90;;;;;;5074122;28;20556;-77
2022/11/19 10:52:27;;;;;;;9.93;8.37;;;0.70;99.90;;;;;;5072492;28;20836;-77
2022/11/19 10:54:59;;;;;;;9.90;9.00;;;0.80;99.90;;;;;;5072581;28;20437;-77
2022/11/19 10:57:31;;;;;;;9.70;8.70;;;0.90;99.90;;;;;;5072562;28;20429;-77
2022/11/19 11:00:01;;;;;;;10.73;9.63;;;0.90;99.90;;;;;;5072477;28;20499;-77
2022/11/19 11:02:42;;;;;;;9.30;8.00;;;1.00;99.90;;;;;;5072372;28;20469;-77
2022/11/19 11:05:12;;;;;;;9.63;8.73;;;1.00;99.90;;;;;;5074307;28;20476;-77
2022/11/19 11:07:54;;;;;;;9.47;8.50;;;1.10;99.90;;;;;;5072448;28;20433;-77
2022/11/19 11:10:36;;;;;;;9.53;8.53;;;1.10;99.90;;;;;;5072317;28;20511;-77
2022/11/19 11:16:17;;;;;;;11.53;9.13;;;1.20;99.90;;;;;;5074049;28;20427;-77
2022/11/19 11:18:46;;;;;;;9.90;8.93;;;1.30;99.90;;;;;;5073924;28;20415;-77
2022/11/19 11:21:31;;;;;;;10.10;9.10;;;1.30;99.90;;;;;;5072435;28;20451;-77
2022/11/19 11:24:01;;;;;;;10.13;9.13;;;1.30;99.90;;;;;;5072090;28;20465;-77
2022/11/19 11:26:32;;;;;;;11.73;10.13;;;1.40;99.90;;;;;;5073098;28;20453;-77
2022/11/19 11:29:02;;;;;;;10.20;9.20;;;1.40;99.90;;;;;;5073717;28;20419;-77
2022/11/19 11:31:37;;;;;;;9.73;8.83;;;1.50;99.90;;;;;;5072026;28;20470;-77
2022/11/19 11:34:13;;;;;;;9.80;8.83;;;1.50;99.90;;;;;;5072014;28;20992;-77
2022/11/19 11:36:43;;;;;;;10.83;9.83;;;1.50;99.90;;;;;;5072041;28;20451;-77
2022/11/19 11:39:26;;;;;;;9.47;8.50;;;1.60;99.90;;;;;;5073326;28;20490;-77
2022/11/19 11:41:55;;;;;;;9.63;8.63;;;1.60;99.90;;;;;;5072013;28;20448;-77
2022/11/19 11:44:51;;;;;;;9.60;8.60;;;1.70;99.90;;;;;;5073201;28;20487;-77
2022/11/19 11:47:23;;;;;;;9.73;8.73;;;1.70;99.90;;;;;;5071926;28;20490;-77
2022/11/19 11:50:00;;;;;;;10.80;9.67;;;1.70;99.90;;;;;;5073454;28;20422;-77
2022/11/19 11:52:34;;;;;;;11.23;10.20;;;1.80;99.90;;;;;;5073075;28;20465;-77
2022/11/19 11:55:05;;;;;;;9.93;8.93;;;1.80;99.90;;;;;;5071860;28;20471;-78
2022/11/19 11:57:35;;;;;;;10.80;9.80;;;1.80;99.90;;;;;;5071864;28;20470;-77
2022/11/19 12:00:31;;;;;;;9.63;8.63;;;1.80;99.90;;;;;;5073015;28;20443;-77
2022/11/19 12:03:02;;;;;;;9.70;8.70;;;1.90;99.90;;;;;;5071844;28;20859;-77
2022/11/19 12:05:42;;;;;;;10.10;9.13;;;1.90;99.90;;;;;;5073289;28;20441;-77
2022/11/19 12:08:20;;;;;;;10.50;9.50;;;2.00;99.90;;;;;;5073311;28;20418;-77
2022/11/19 12:11:00;;;;;;;10.77;9.70;;;2.00;99.90;;;;;;5073277;28;20468;-77
2022/11/19 12:13:57;;;;;;;10.50;9.50;;;2.00;99.90;;;;;;5071732;28;20485;-78
2022/11/19 12:16:50;;;;;;;10.97;9.87;;;2.10;99.90;;;;;;5072806;28;20452;-77
2022/11/19 12:19:42;;;;;;;10.10;9.10;;;2.10;99.90;;;;;;5069888;28;20454;-78
2022/11/19 12:22:20;;;;;;;10.17;8.87;;;2.10;99.90;;;;;;5072595;28;20457;-77
2022/11/19 12:25:08;;;;;;;10.70;9.50;;;2.10;99.90;;;;;;5071678;28;20439;-78
2022/11/19 12:27:41;;;;;;;10.60;9.60;;;2.20;99.90;;;;;;5071614;28;20820;-78
2022/11/19 12:30:17;;;;;;;10.70;9.50;;;2.20;99.90;;;;;;5073081;28;20473;-77
2022/11/19 12:33:07;;;;;;;9.67;8.70;;;2.30;99.90;;;;;;5073030;28;20450;-77
2022/11/19 12:35:48;;;;;;;9.53;8.50;;;2.30;99.90;;;;;;5071573;28;20448;-78
2022/11/19 12:38:36;;;;;;;10.57;7.90;;;2.40;99.90;;;;;;5073548;28;20770;-78
2022/11/19 12:41:18;;;;;;;9.67;8.77;;;2.40;99.90;;;;;;5076441;28;20966;-78
2022/11/19 12:43:56;;;;;;;9.13;8.20;;;2.50;99.90;;;;;;5075225;28;21004;-78
2022/11/19 12:46:37;;;;;;;7.80;7.00;;;2.50;99.90;;;;;;5076641;28;20887;-78
2022/11/19 12:49:30;;;;;;;10.60;9.57;;;2.50;99.90;;;;;;5076766;28;20434;-78
2022/11/19 12:52:15;;;;;;;10.20;9.20;;;2.60;99.90;;;;;;5074999;28;20873;-78
2022/11/19 12:54:56;;;;;;;9.73;8.73;;;2.60;99.90;;;;;;5075180;28;20498;-78
2022/11/19 12:57:40;;;;;;;11.37;10.00;;;2.60;99.90;;;;;;5075074;28;20439;-78
2022/11/19 13:00:12;;;;;;;9.53;8.43;;;2.70;99.90;;;;;;5075909;28;20452;-78
2022/11/19 13:02:50;;;;;;;10.07;9.17;;;2.70;99.90;;;;;;5074875;28;20471;-78
2022/11/19 13:05:21;;;;;;;9.60;8.60;;;2.80;99.90;;;;;;5076207;28;20431;-78
2022/11/19 13:07:56;;;;;;;11.07;9.63;;;2.80;99.90;;;;;;5074884;28;20547;-78
2022/11/19 13:10:28;;;;;;;11.30;9.40;;;2.90;99.90;;;;;;5076300;28;20429;-78
2022/11/19 13:13:00;;;;;;;9.73;8.73;;;2.90;99.90;;;;;;5074549;28;20477;-77
2022/11/19 13:15:33;;;;;;;11.33;9.83;;;2.90;99.90;;;;;;5074591;28;20445;-78
2022/11/19 13:18:06;;;;;;;10.93;9.90;;;2.90;99.90;;;;;;5074647;28;20935;-77
2022/11/19 13:20:43;;;;;;;9.77;8.77;;;3.00;99.90;;;;;;5076115;28;20438;-78
2022/11/19 13:23:20;;;;;;;8.13;7.30;;;3.00;99.90;;;;;;5075902;28;20457;-78
2022/11/19 13:25:56;;;;;;;9.73;8.67;;;3.00;99.90;;;;;;5076188;28;20441;-78